Time;durP1;ratioP1;P1;durP2;ratioP2;P2;SDS_P1;SDS_P2;PMS_P1;PMS_P2;Temp;Humidity;BMP_temperature;BMP_pressure;BME280_temperature;BME280_humidity;BME280_pressure;Samples;Min_cycle;Max_cycle;Signal;HPM_P1;HPM_P2
2022/10/23 00:04:44;;;;;;;30.25;12.93;;;;;;;9.89;100.00;101111.91;10493241;28;20098;-68
2022/10/23 00:09:47;;;;;;;36.67;13.05;;;;;;;9.88;100.00;101105.84;10495617;28;20052;-65
2022/10/23 00:14:48;;;;;;;38.10;12.50;;;;;;;9.96;100.00;101102.94;10494564;28;20052;-65
2022/10/23 00:19:50;;;;;;;41.55;12.98;;;;;;;9.88;100.00;101098.00;10495256;28;20098;-66
2022/10/23 00:24:53;;;;;;;32.53;14.25;;;;;;;9.95;100.00;101110.84;10494391;28;20106;-66
2022/10/23 00:29:55;;;;;;;28.25;12.95;;;;;;;9.88;100.00;101110.19;10495131;28;20519;-65
2022/10/23 00:34:57;;;;;;;33.10;13.13;;;;;;;9.88;100.00;101099.75;10491858;28;20109;-64
2022/10/23 00:40:01;;;;;;;39.40;13.82;;;;;;;9.92;100.00;101102.22;10494725;28;20059;-65
2022/10/23 00:45:24;;;;;;;37.65;14.02;;;;;;;10.01;100.00;101089.75;10494307;28;20105;-67
2022/10/23 00:50:28;;;;;;;34.97;13.40;;;;;;;10.05;100.00;101096.56;10494258;28;20129;-64
2022/10/23 00:55:33;;;;;;;27.60;12.80;;;;;;;10.00;100.00;101091.53;10494237;28;20211;-66
2022/10/23 01:00:44;;;;;;;28.20;12.63;;;;;;;9.99;100.00;101092.41;10494448;28;20095;-65
2022/10/23 01:05:53;;;;;;;31.45;12.27;;;;;;;10.05;100.00;101089.59;10494360;28;20476;-66
2022/10/23 01:11:07;;;;;;;25.00;12.65;;;;;;;10.16;100.00;101088.31;10501106;28;20082;-65
2022/10/23 01:16:18;;;;;;;34.08;12.93;;;;;;;10.10;100.00;101083.34;10501174;28;20089;-65
2022/10/23 01:21:32;;;;;;;37.47;12.38;;;;;;;10.05;100.00;101081.75;10501273;28;20225;-65
2022/10/23 01:26:52;;;;;;;34.95;12.32;;;;;;;9.99;100.00;101081.16;10500815;28;20048;-65
2022/10/23 01:32:04;;;;;;;38.10;12.65;;;;;;;9.91;100.00;101069.22;10501128;28;20102;-65
2022/10/23 01:37:13;;;;;;;44.67;11.98;;;;;;;9.84;100.00;101057.31;10498059;28;20053;-66
2022/10/23 01:42:22;;;;;;;31.73;12.10;;;;;;;9.83;100.00;101054.75;10500369;28;20068;-66
2022/10/23 01:47:33;;;;;;;39.22;12.07;;;;;;;9.82;100.00;101042.66;10500265;28;20557;-65
2022/10/23 01:52:36;;;;;;;41.83;12.17;;;;;;;9.85;100.00;101045.16;10499771;28;20044;-65
2022/10/23 01:57:42;;;;;;;44.13;12.15;;;;;;;9.84;100.00;101035.59;10499758;28;20056;-64
2022/10/23 02:02:50;;;;;;;32.05;11.15;;;;;;;9.91;100.00;101037.94;10499170;28;20079;-65
2022/10/23 02:07:52;;;;;;;38.00;11.63;;;;;;;9.90;100.00;101041.47;10497179;28;20074;-65
2022/10/23 02:13:03;;;;;;;21.23;11.73;;;;;;;9.98;100.00;101038.56;10498730;28;20079;-64
2022/10/23 02:18:20;;;;;;;30.73;11.35;;;;;;;9.96;100.00;101035.16;10498683;28;20063;-65
2022/10/23 02:23:32;;;;;;;43.50;12.40;;;;;;;9.98;100.00;101028.13;10498516;28;20076;-65
2022/10/23 02:28:43;;;;;;;27.30;12.25;;;;;;;9.95;100.00;101033.47;10498324;28;20522;-65
2022/10/23 02:33:47;;;;;;;31.92;12.27;;;;;;;10.00;100.00;101018.53;10498076;28;20053;-66
2022/10/23 02:38:49;;;;;;;50.22;12.55;;;;;;;10.04;100.00;101017.50;10496255;28;20063;-64
2022/10/23 02:44:07;;;;;;;37.05;12.32;;;;;;;10.09;100.00;100993.84;10497762;28;20113;-65
2022/10/23 02:49:19;;;;;;;31.60;12.82;;;;;;;10.16;100.00;100979.66;10497657;28;20040;-64
2022/10/23 02:54:38;;;;;;;32.60;12.32;;;;;;;10.14;100.00;100962.38;10497215;28;20481;-65
2022/10/23 02:59:47;;;;;;;38.13;12.75;;;;;;;10.25;100.00;100951.50;10497069;28;20558;-65
2022/10/23 03:04:53;;;;;;;42.22;12.80;;;;;;;10.27;100.00;100940.09;10494031;28;20496;-65
2022/10/23 03:09:54;;;;;;;34.08;13.05;;;;;;;10.34;100.00;100935.53;10497052;28;20546;-64
2022/10/23 03:14:56;;;;;;;33.65;12.45;;;;;;;10.33;100.00;100928.56;10496286;28;20102;-72
2022/10/23 03:19:59;;;;;;;38.10;13.02;;;;;;;10.38;100.00;100928.41;10496315;28;20059;-72
2022/10/23 03:25:01;;;;;;;31.20;13.25;;;;;;;10.34;100.00;100924.22;10496042;28;20495;-72
2022/10/23 03:30:05;;;;;;;34.70;13.00;;;;;;;10.39;100.00;100911.84;10496473;28;20102;-73
2022/10/23 03:35:08;;;;;;;31.48;12.20;;;;;;;10.45;100.00;100916.84;10493628;28;20188;-72
2022/10/23 03:40:11;;;;;;;39.20;12.40;;;;;;;10.49;100.00;100902.75;10495675;28;20048;-72
2022/10/23 03:45:13;;;;;;;31.38;12.27;;;;;;;10.48;100.00;100901.06;10495925;28;20091;-72
2022/10/23 03:50:16;;;;;;;31.67;12.20;;;;;;;10.54;100.00;100894.75;10495851;28;20082;-72
2022/10/23 03:55:18;;;;;;;42.58;13.15;;;;;;;10.51;100.00;100890.47;10495136;28;20397;-75
2022/10/23 04:00:20;;;;;;;37.97;12.60;;;;;;;10.56;100.00;100888.56;10495337;28;20040;-73
2022/10/23 04:05:23;;;;;;;33.47;12.48;;;;;;;10.55;100.00;100876.41;10492352;28;20485;-73
2022/10/23 04:10:25;;;;;;;32.45;11.55;;;;;;;10.57;100.00;100858.06;10495046;28;20059;-73
2022/10/23 04:15:27;;;;;;;24.98;11.00;;;;;;;10.48;100.00;100858.47;10494658;28;20083;-73
2022/10/23 04:20:31;;;;;;;30.48;11.48;;;;;;;10.44;100.00;100852.50;10494630;28;20462;-73
2022/10/23 04:25:33;;;;;;;27.98;11.23;;;;;;;10.47;100.00;100862.81;10495341;28;20080;-72
2022/10/23 04:30:35;;;;;;;30.67;11.13;;;;;;;10.45;100.00;100867.28;10494611;28;20098;-73
2022/10/23 04:35:38;;;;;;;30.27;11.25;;;;;;;10.57;100.00;100868.50;10491968;28;20449;-73
2022/10/23 04:40:42;;;;;;;32.08;11.32;;;;;;;10.79;100.00;100858.03;10497950;28;20048;-73
2022/10/23 04:45:43;;;;;;;34.65;10.57;;;;;;;10.97;100.00;100850.28;10502308;28;20118;-73
2022/10/23 04:50:57;;;;;;;23.92;10.10;;;;;;;11.05;100.00;100853.41;10502531;28;20055;-72
2022/10/23 04:56:00;;;;;;;23.60;9.07;;;;;;;11.03;100.00;100846.56;10501977;28;20520;-73
2022/10/23 05:01:03;;;;;;;26.23;10.38;;;;;;;10.97;100.00;100839.00;10502065;28;20048;-72
2022/10/23 05:06:07;;;;;;;25.48;10.48;;;;;;;10.98;100.00;100841.53;10499652;28;20557;-75
2022/10/23 05:11:08;;;;;;;17.13;8.60;;;;;;;11.31;100.00;100840.94;10501819;28;20056;-73
2022/10/23 05:16:15;;;;;;;18.35;7.80;;;;;;;11.41;100.00;100833.53;10501735;28;20049;-75
2022/10/23 05:21:25;;;;;;;16.55;7.30;;;;;;;11.48;100.00;100826.25;10501633;28;20101;-74
2022/10/23 05:26:26;;;;;;;14.18;7.22;;;;;;;11.47;100.00;100816.72;10501057;28;20135;-70
2022/10/23 05:31:28;;;;;;;21.95;7.28;;;;;;;11.32;100.00;100819.13;10500805;28;20083;-71
2022/10/23 05:36:32;;;;;;;;;;;;;;;11.17;100.00;100814.59;10499062;28;20060;-73
2022/10/23 05:41:33;;;;;;;11.23;6.65;;;;;;;11.43;100.00;100817.78;10500245;28;19974;-71
2022/10/23 05:46:40;;;;;;;13.30;6.32;;;;;;;11.15;100.00;100808.63;10500105;28;20080;-74
2022/10/23 05:51:43;;;;;;;14.20;6.30;;;;;;;11.21;100.00;100803.09;10498589;28;20049;-73
2022/10/23 05:56:46;;;;;;;14.45;6.82;;;;;;;11.13;100.00;100810.44;10500003;28;20063;-73
2022/10/23 06:01:48;;;;;;;13.27;6.70;;;;;;;11.30;100.00;100800.03;10499658;28;20049;-72
2022/10/23 06:06:51;;;;;;;12.98;5.47;;;;;;;11.39;100.00;100790.13;10496812;28;20393;-74
2022/10/23 06:11:53;;;;;;;18.70;5.63;;;;;;;11.36;100.00;100791.09;10499071;28;20068;-73
2022/10/23 06:16:54;;;;;;;13.00;6.00;;;;;;;11.45;100.00;100782.81;10499317;28;20063;-73
2022/10/23 06:21:57;;;;;;;13.38;4.97;;;;;;;11.56;100.00;100784.06;10499256;28;20098;-74
2022/10/23 06:26:59;;;;;;;15.88;5.43;;;;;;;11.56;100.00;100782.31;10498142;28;20049;-75
2022/10/23 06:32:01;;;;;;;13.18;5.00;;;;;;;11.70;100.00;100776.41;10498076;28;20047;-74
2022/10/23 06:37:04;;;;;;;8.68;4.20;;;;;;;11.81;100.00;100767.22;10495965;28;20118;-75
2022/10/23 06:42:06;;;;;;;16.65;5.32;;;;;;;11.78;100.00;100763.00;10498195;28;20071;-74
2022/10/23 06:47:09;;;;;;;14.10;5.57;;;;;;;11.74;100.00;100748.38;10497769;28;20047;-73
2022/10/23 06:52:12;;;;;;;7.65;4.50;;;;;;;11.93;100.00;100750.06;10497360;28;20056;-74
2022/10/23 06:57:14;;;;;;;9.75;4.78;;;;;;;12.06;100.00;100751.19;10497388;28;20044;-73
2022/10/23 07:02:17;;;;;;;13.43;5.22;;;;;;;11.93;100.00;100744.84;10496851;28;20478;-75
2022/10/23 07:07:20;;;;;;;10.80;5.00;;;;;;;11.98;100.00;100753.31;10494668;28;20076;-73
2022/10/23 07:12:21;;;;;;;10.77;5.13;;;;;;;12.25;100.00;100752.03;10496654;28;20052;-75
2022/10/23 07:17:23;;;;;;;11.70;4.40;;;;;;;12.17;100.00;100745.41;10496952;28;20048;-74
2022/10/23 07:22:26;;;;;;;13.02;4.13;;;;;;;12.27;100.00;100737.94;10496489;28;20098;-74
2022/10/23 07:27:28;;;;;;;16.02;4.80;;;;;;;12.40;100.00;100738.16;10469584;28;20052;-74
2022/10/23 07:32:31;;;;;;;10.77;4.57;;;;;;;12.53;100.00;100727.91;10465147;28;20068;-75
2022/10/23 07:37:34;;;;;;;13.40;4.22;;;;;;;12.64;100.00;100718.63;10493430;28;20096;-73
2022/10/23 07:42:38;;;;;;;8.57;3.83;;;;;;;12.71;100.00;100719.97;10459297;28;20514;-73
2022/10/23 07:47:39;;;;;;;11.52;3.38;;;;;;;12.68;100.00;100712.28;10455111;28;20059;-74
2022/10/23 07:52:43;;;;;;;15.85;4.43;;;;;;;12.70;100.00;100707.81;10494962;28;20510;-76
2022/10/23 07:57:45;;;;;;;6.47;4.07;;;;;;;12.79;100.00;100717.78;10495056;28;20040;-73
2022/10/23 08:02:48;;;;;;;17.13;4.78;;;;;;;12.95;100.00;100716.97;10494164;28;20416;-74
2022/10/23 08:07:51;;;;;;;7.55;4.72;;;;;;;13.11;100.00;100712.56;10452907;28;20111;-74
2022/10/23 08:12:53;;;;;;;9.75;4.80;;;;;;;13.29;100.00;100709.88;10465000;28;20599;-71
2022/10/23 08:17:54;;;;;;;6.68;4.45;;;;;;;13.32;100.00;100701.84;10429595;28;20111;-74
2022/10/23 08:22:57;;;;;;;9.00;4.15;;;;;;;13.36;100.00;100705.97;10440139;28;20103;-64
2022/10/23 08:27:59;;;;;;;14.30;4.65;;;;;;;13.48;100.00;100698.34;10485078;28;20106;-65
2022/10/23 08:33:03;;;;;;;10.52;4.50;;;;;;;13.54;100.00;100690.16;10495038;28;20048;-65
2022/10/23 08:38:07;;;;;;;12.02;4.47;;;;;;;13.62;100.00;100690.53;10492075;28;20075;-65
2022/10/23 08:43:21;;;;;;;10.30;4.70;;;;;;;13.62;100.00;100680.06;10458195;28;20293;-64
2022/10/23 08:48:30;;;;;;;9.35;4.22;;;;;;;13.61;100.00;100672.28;10412301;28;20130;-65
2022/10/23 08:53:45;;;;;;;9.68;4.47;;;;;;;13.58;100.00;100672.47;10411996;28;20049;-65
2022/10/23 08:58:55;;;;;;;8.50;4.60;;;;;;;13.72;100.00;100658.56;10411385;28;20079;-66
2022/10/23 09:03:57;;;;;;;11.43;4.65;;;;;;;13.90;100.00;100654.81;10411461;28;20072;-65
2022/10/23 09:09:17;;;;;;;;;;;;;;;13.82;100.00;100649.19;10410350;28;20110;-73
2022/10/23 09:15:04;;;;;;;7.28;4.03;;;;;;;13.96;100.00;100640.50;10411071;28;19921;-74
2022/10/23 09:20:19;;;;;;;7.15;4.00;;;;;;;14.14;100.00;100648.22;10411345;28;20050;-78
2022/10/23 09:25:25;;;;;;;6.38;3.83;;;;;;;14.16;100.00;100623.56;10433911;28;20114;-77
2022/10/23 09:30:32;;;;;;;5.28;4.07;;;;;;;14.29;100.00;100615.78;10501056;28;20106;-75
2022/10/23 09:35:34;;;;;;;9.00;4.38;;;;;;;14.30;100.00;100606.09;10499264;28;20558;-74
2022/10/23 09:40:42;;;;;;;7.38;4.20;;;;;;;14.25;100.00;100593.28;10500621;28;20074;-74
2022/10/23 09:45:44;;;;;;;6.10;4.07;;;;;;;14.32;100.00;100593.75;10461003;28;20045;-72
2022/10/23 09:50:54;;;;;;;7.53;4.25;;;;;;;14.34;100.00;100596.28;10458685;28;20053;-74
2022/10/23 09:56:02;;;;;;;5.35;3.45;;;;;;;14.31;100.00;100593.84;10458431;28;20466;-79
2022/10/23 10:01:05;;;;;;;13.18;3.72;;;;;;;14.53;100.00;100582.81;10459243;28;20091;-73
2022/10/23 10:06:23;;;;;;;6.15;3.70;;;;;;;14.63;100.00;100562.06;10456575;28;20088;-76
2022/10/23 10:11:37;;;;;;;10.35;4.07;;;;;;;14.84;100.00;100562.50;10457805;28;20107;-76
2022/10/23 10:16:50;;;;;;;6.35;4.05;;;;;;;14.80;100.00;100550.50;10457421;28;20087;-73
2022/10/23 10:22:07;;;;;;;7.25;3.58;;;;;;;14.78;100.00;100541.91;10457243;28;20076;-77
2022/10/23 10:27:33;;;;;;;8.40;3.55;;;;;;;14.72;100.00;100532.59;10457160;28;20052;-77
2022/10/23 10:32:46;;;;;;;8.10;3.80;;;;;;;15.01;100.00;100542.16;10457181;28;20048;-75
2022/10/23 10:38:17;;;;;;;9.55;4.03;;;;;;;15.28;100.00;100543.88;10454293;28;20482;-75
2022/10/23 10:43:40;;;;;;;11.20;3.60;;;;;;;15.52;100.00;100530.03;10452922;28;20172;-77
2022/10/23 10:48:49;;;;;;;8.85;3.60;;;;;;;15.83;100.00;100517.38;10456037;28;20067;-75
2022/10/23 10:54:21;;;;;;;5.30;3.25;;;;;;;16.09;100.00;100506.84;10456200;28;20122;-75
2022/10/23 10:59:30;;;;;;;13.40;3.30;;;;;;;16.66;100.00;100493.97;10456181;28;20114;-76
2022/10/23 11:04:40;;;;;;;4.82;3.20;;;;;;;16.38;100.00;100498.63;10453901;28;20045;-75
2022/10/23 11:09:43;;;;;;;11.10;3.60;;;;;;;16.59;100.00;100498.00;10473223;28;20063;-75
2022/10/23 11:14:50;;;;;;;5.53;3.38;;;;;;;16.51;100.00;100495.09;10496599;28;20353;-75
2022/10/23 11:20:03;;;;;;;6.25;3.58;;;;;;;16.78;100.00;100497.50;10492651;28;20114;-76
2022/10/23 11:25:30;;;;;;;9.82;3.40;;;;;;;16.79;100.00;100474.59;10496101;28;20037;-77
2022/10/23 11:30:43;;;;;;;7.20;3.25;;;;;;;17.11;100.00;100466.13;10496695;28;20067;-72
2022/10/23 11:36:12;;;;;;;5.78;3.47;;;;;;;17.05;100.00;100446.34;10493477;28;20201;-74
2022/10/23 11:41:23;;;;;;;6.05;3.20;;;;;;;16.90;100.00;100429.84;10496151;28;20052;-75
2022/10/23 11:46:34;;;;;;;7.33;3.00;;;;;;;17.18;100.00;100435.66;10467512;28;20052;-74
2022/10/23 11:51:37;;;;;;;7.88;3.08;;;;;;;17.73;100.00;100419.09;10452829;28;20052;-75
2022/10/23 11:56:55;;;;;;;12.63;3.58;;;;;;;17.49;100.00;100425.38;10453781;28;20110;-75
2022/10/23 12:02:02;;;;;;;5.32;2.88;;;;;;;17.10;100.00;100424.88;10453626;28;20424;-77
2022/10/23 12:07:20;;;;;;;8.85;3.47;;;;;;;17.18;100.00;100419.84;10451581;28;20044;-75
2022/10/23 12:12:34;;;;;;;5.95;3.20;;;;;;;17.19;100.00;100416.28;10453539;28;20056;-75
2022/10/23 12:17:39;;;;;;;4.70;2.53;;;;;;;17.13;100.00;100405.38;10453504;28;20053;-75
2022/10/23 12:22:50;;;;;;;9.88;3.05;;;;;;;17.22;100.00;100394.94;10453934;28;20123;-79
2022/10/23 12:28:03;;;;;;;6.80;3.17;;;;;;;17.24;100.00;100386.88;10485106;28;20044;-74
2022/10/23 12:33:27;;;;;;;9.27;3.17;;;;;;;17.45;100.00;100373.00;10494485;28;20072;-80
2022/10/23 12:38:30;;;;;;;8.32;3.35;;;;;;;17.23;100.00;100367.63;10492853;28;20068;-74
2022/10/23 12:43:36;;;;;;;6.78;2.65;;;;;;;17.42;100.00;100352.97;10494652;28;20090;-77
2022/10/23 12:48:48;;;;;;;6.05;3.10;;;;;;;17.62;100.00;100359.28;10456338;28;20559;-75
2022/10/23 12:53:51;;;;;;;8.60;3.30;;;;;;;18.11;100.00;100363.38;10452499;28;20045;-76
2022/10/23 12:58:56;;;;;;;5.50;3.15;;;;;;;17.74;100.00;100349.56;10452765;28;20542;-74
2022/10/23 13:04:13;;;;;;;5.20;2.80;;;;;;;17.91;100.00;100336.78;10458848;28;20088;-77
2022/10/23 13:09:27;;;;;;;4.43;3.20;;;;;;;18.00;100.00;100322.81;10498083;28;20101;-63
2022/10/23 13:14:35;;;;;;;9.70;3.35;;;;;;;17.76;100.00;100305.41;10501248;28;20056;-66
2022/10/23 13:19:38;;;;;;;8.48;3.20;;;;;;;17.99;100.00;100300.03;10502697;28;20101;-62
2022/10/23 13:24:41;;;;;;;8.45;3.00;;;;;;;17.94;100.00;100283.75;10502899;28;20041;-65
2022/10/23 13:29:43;;;;;;;6.60;2.95;;;;;;;17.89;100.00;100278.84;10501226;28;20072;-65
2022/10/23 13:34:54;;;;;;;5.10;2.80;;;;;;;17.98;100.00;100266.69;10498235;28;20044;-67
2022/10/23 13:40:01;;;;;;;5.20;2.65;;;;;;;18.09;100.00;100264.97;10500591;28;20500;-66
2022/10/23 13:45:16;;;;;;;5.63;2.75;;;;;;;18.17;100.00;100254.63;10500063;28;20094;-66
2022/10/23 13:50:20;;;;;;;2.97;2.53;;;;;;;18.28;100.00;100257.16;10500025;28;20458;-65
2022/10/23 13:55:27;;;;;;;10.65;2.97;;;;;;;18.45;100.00;100260.19;10500134;28;20074;-68
2022/10/23 14:00:28;;;;;;;5.90;2.47;;;;;;;18.28;97.43;100265.09;10499753;28;20507;-66
2022/10/23 14:05:33;;;;;;;5.68;2.92;;;;;;;18.39;98.06;100266.84;10497492;28;20049;-66
2022/10/23 14:10:35;;;;;;;8.88;3.20;;;;;;;18.63;97.87;100251.66;10499050;28;20142;-67
2022/10/23 14:15:36;;;;;;;6.75;3.08;;;;;;;18.34;97.90;100239.16;10498953;28;20044;-66
2022/10/23 14:20:39;;;;;;;11.57;3.20;;;;;;;18.21;100.00;100256.03;10498727;28;20048;-66
2022/10/23 14:25:41;;;;;;;6.00;3.15;;;;;;;18.12;99.77;100249.72;10498902;28;20091;-65
2022/10/23 14:30:43;;;;;;;4.88;2.85;;;;;;;18.02;100.00;100259.34;10498624;28;20488;-64
2022/10/23 14:35:46;;;;;;;9.18;2.67;;;;;;;17.97;100.00;100254.44;10496247;28;20166;-67
2022/10/23 14:40:48;;;;;;;6.03;2.95;;;;;;;18.00;100.00;100254.19;10480891;28;20044;-65
2022/10/23 14:45:50;;;;;;;5.97;2.90;;;;;;;17.98;100.00;100248.22;10498312;28;20049;-67
2022/10/23 14:50:53;;;;;;;8.93;3.10;;;;;;;18.01;100.00;100247.97;10498104;28;20109;-66
2022/10/23 14:56:02;;;;;;;4.82;2.97;;;;;;;17.97;100.00;100233.31;10498037;28;20059;-65
2022/10/23 15:01:05;;;;;;;7.25;2.92;;;;;;;17.89;100.00;100227.84;10498850;28;20083;-64
2022/10/23 15:06:08;;;;;;;5.18;2.85;;;;;;;17.82;100.00;100221.44;10496397;28;20122;-65
2022/10/23 15:11:10;;;;;;;6.38;3.10;;;;;;;17.82;100.00;100216.16;10497889;28;20052;-65
2022/10/23 15:16:12;;;;;;;7.30;3.28;;;;;;;17.87;100.00;100211.31;10498217;28;20723;-66
2022/10/23 15:21:15;;;;;;;7.60;3.25;;;;;;;17.61;100.00;100204.59;10497896;28;20048;-65
2022/10/23 15:26:22;;;;;;;4.15;2.95;;;;;;;17.67;100.00;100197.97;10479636;28;20115;-64
2022/10/23 15:31:40;;;;;;;5.13;2.90;;;;;;;17.56;100.00;100217.34;10414973;28;20310;-65
2022/10/23 15:36:46;;;;;;;6.72;3.30;;;;;;;17.38;100.00;100198.56;10466132;28;20055;-76
2022/10/23 15:41:52;;;;;;;7.53;3.15;;;;;;;17.37;100.00;100196.91;10475160;28;20132;-78
2022/10/23 15:46:57;;;;;;;8.15;3.03;;;;;;;17.09;100.00;100178.06;10464770;28;20073;-77
2022/10/23 15:52:01;;;;;;;8.77;2.85;;;;;;;16.99;100.00;100177.94;10454174;28;20432;-75
2022/10/23 15:57:04;;;;;;;13.23;3.45;;;;;;;16.66;100.00;100148.88;10453140;28;20057;-76
2022/10/23 16:02:07;;;;;;;7.75;3.45;;;;;;;16.73;100.00;100130.78;10452806;28;20056;-75
2022/10/23 16:07:10;;;;;;;13.75;4.00;;;;;;;16.64;100.00;100097.28;10463899;28;20677;-79
2022/10/23 16:12:12;;;;;;;11.00;3.90;;;;;;;16.60;100.00;100115.97;10493571;28;20750;-75
2022/10/23 16:17:14;;;;;;;4.97;3.17;;;;;;;16.70;100.00;100110.78;10493872;28;20455;-76
2022/10/23 16:22:18;;;;;;;10.48;3.67;;;;;;;16.66;100.00;100109.38;10494994;28;20075;-76
2022/10/23 16:27:20;;;;;;;4.70;3.35;;;;;;;16.43;100.00;100127.81;10493861;28;20078;-76
2022/10/23 16:32:22;;;;;;;;;;;;;;;16.40;100.00;100137.78;10494158;28;20134;-77
2022/10/23 16:37:25;;;;;;;15.18;4.00;;;;;;;16.57;100.00;100136.44;10496189;28;19924;-77
2022/10/23 16:42:29;;;;;;;7.30;4.03;;;;;;;16.52;100.00;100159.69;10502201;28;20049;-77
2022/10/23 16:47:32;;;;;;;5.85;3.85;;;;;;;16.81;100.00;100136.28;10501422;28;20049;-75
2022/10/23 16:52:36;;;;;;;12.63;3.90;;;;;;;16.80;100.00;100126.69;10502782;28;20080;-75
2022/10/23 16:57:38;;;;;;;9.30;3.38;;;;;;;16.79;100.00;100118.91;10502683;28;20052;-74
2022/10/23 17:02:41;;;;;;;9.45;3.75;;;;;;;16.77;100.00;100121.69;10461374;28;20056;-78
2022/10/23 17:07:44;;;;;;;11.13;3.25;;;;;;;16.76;100.00;100117.38;10488948;28;20055;-79
2022/10/23 17:12:48;;;;;;;5.82;3.58;;;;;;;16.77;100.00;100110.31;10477868;28;20061;-73
2022/10/23 17:17:50;;;;;;;8.40;3.58;;;;;;;16.83;100.00;100115.91;10485755;28;20045;-77
2022/10/23 17:22:54;;;;;;;8.48;3.38;;;;;;;16.74;100.00;100129.84;10501912;28;20069;-75
2022/10/23 17:27:56;;;;;;;6.68;3.95;;;;;;;16.66;100.00;100125.16;10480869;28;20049;-76
2022/10/23 17:32:58;;;;;;;;;;;;;;;16.85;100.00;100144.78;10460926;28;20546;-76
2022/10/23 17:38:01;;;;;;;10.07;4.18;;;;;;;16.82;100.00;100139.75;10458278;28;19920;-78
2022/10/23 17:43:04;;;;;;;7.88;3.78;;;;;;;16.99;100.00;100135.75;10460422;28;20111;-80
2022/10/23 17:48:06;;;;;;;6.57;3.67;;;;;;;16.81;100.00;100135.44;10459664;28;20114;-80
2022/10/23 17:53:11;;;;;;;7.03;3.60;;;;;;;16.84;100.00;100145.75;10460546;28;20439;-75
2022/10/23 17:58:12;;;;;;;6.85;3.78;;;;;;;16.85;100.00;100118.44;10500812;28;20073;-79
2022/10/23 18:03:15;;;;;;;;;;;;;;;16.63;100.00;100124.59;10500774;28;20446;-77
2022/10/23 18:08:18;;;;;;;8.57;3.78;;;;;;;16.72;100.00;100129.13;10498183;28;20590;-77
2022/10/23 18:13:21;;;;;;;9.63;4.28;;;;;;;16.44;100.00;100124.25;10500872;28;20072;-77
2022/10/23 18:18:22;;;;;;;7.75;4.35;;;;;;;16.47;100.00;100131.94;10500151;28;20457;-76
2022/10/23 18:23:29;;;;;;;;;;;;;;;16.52;100.00;100128.09;10501234;28;20052;-75
2022/10/23 18:28:31;;;;;;;8.52;4.00;;;;;;;16.55;100.00;100112.00;10500779;28;19966;-75
2022/10/23 18:33:34;;;;;;;10.10;4.28;;;;;;;16.56;100.00;100108.44;10500439;28;20064;-79
2022/10/23 18:38:37;;;;;;;7.00;4.20;;;;;;;16.42;100.00;100101.66;10493987;28;20036;-77
2022/10/23 18:43:41;;;;;;;11.15;4.05;;;;;;;16.63;100.00;100099.06;10499943;28;20048;-82
2022/10/23 18:48:43;;;;;;;5.90;3.53;;;;;;;16.59;100.00;100118.72;10501106;28;20135;-75
2022/10/23 18:53:49;;;;;;;10.15;3.78;;;;;;;16.63;100.00;100106.97;10499671;28;20181;-79
2022/10/23 18:58:52;;;;;;;11.38;3.63;;;;;;;16.65;100.00;100123.50;10498884;28;20053;-75
2022/10/23 19:03:58;;;;;;;10.73;3.70;;;;;;;16.72;100.00;100147.56;10499582;28;20062;-79
2022/10/23 19:09:01;;;;;;;10.45;3.63;;;;;;;16.78;100.00;100175.22;10497280;28;20105;-78
2022/10/23 19:14:04;;;;;;;19.48;4.28;;;;;;;16.77;100.00;100286.84;10498822;28;20488;-74
2022/10/23 19:19:15;;;;;;;5.95;2.90;;;;;;;15.72;100.00;100247.22;10498820;28;20048;-83
2022/10/23 19:24:28;;;;;;;5.47;2.22;;;;;;;14.92;100.00;100239.69;10471148;28;20045;-73
2022/10/23 19:29:31;;;;;;;4.63;1.92;;;;;;;14.21;100.00;100176.31;10455260;28;20044;-70
2022/10/23 19:34:34;;;;;;;2.60;1.27;;;;;;;14.16;100.00;100215.97;10448112;28;20063;-71
2022/10/23 19:39:37;;;;;;;5.65;2.30;;;;;;;14.06;100.00;100205.28;10433124;28;20041;-80
2022/10/23 19:44:40;;;;;;;7.40;2.08;;;;;;;13.86;100.00;100198.75;10442402;28;20519;-72
2022/10/23 19:49:42;;;;;;;7.13;2.10;;;;;;;13.85;100.00;100200.53;10455943;28;20049;-75
2022/10/23 19:54:47;;;;;;;;;;;;;;;13.86;100.00;100172.53;10455508;28;20487;-75
2022/10/23 19:59:49;;;;;;;6.90;2.00;;;;;;;13.83;100.00;100191.09;10455130;28;19982;-75
2022/10/23 20:04:52;;;;;;;4.60;1.80;;;;;;;13.93;100.00;100243.78;10453857;28;20045;-74
2022/10/23 20:09:55;;;;;;;4.70;1.98;;;;;;;13.97;100.00;100245.25;10453994;28;20049;-72
2022/10/23 20:14:58;;;;;;;1.40;1.23;;;;;;;14.04;100.00;100217.66;10454804;28;20117;-71
2022/10/23 20:20:00;;;;;;;5.95;2.03;;;;;;;13.89;100.00;100209.88;10455006;28;20053;-75
2022/10/23 20:25:06;;;;;;;8.60;1.90;;;;;;;14.23;100.00;100219.06;10455039;28;20053;-75
2022/10/23 20:30:09;;;;;;;4.18;1.95;;;;;;;14.44;100.00;100210.66;10454965;28;20102;-71
2022/10/23 20:35:14;;;;;;;4.93;2.60;;;;;;;14.50;100.00;100212.81;10453234;28;20531;-75
2022/10/23 20:40:17;;;;;;;5.85;2.20;;;;;;;14.34;100.00;100229.63;10456163;28;20057;-76
2022/10/23 20:45:20;;;;;;;9.30;2.30;;;;;;;14.19;100.00;100220.22;10454990;28;20053;-72
2022/10/23 20:50:22;;;;;;;5.10;2.70;;;;;;;14.09;100.00;100225.25;10456062;28;20049;-76
2022/10/23 20:55:25;;;;;;;5.53;2.53;;;;;;;14.06;100.00;100218.38;10455983;28;20049;-76
2022/10/23 21:00:27;;;;;;;4.32;2.60;;;;;;;13.97;100.00;100217.25;10457162;28;20107;-75
2022/10/23 21:05:29;;;;;;;6.57;3.00;;;;;;;13.99;100.00;100204.03;10454457;28;20072;-76
2022/10/23 21:10:32;;;;;;;6.53;3.20;;;;;;;13.84;100.00;100206.72;10470785;28;20053;-78
2022/10/23 21:15:34;;;;;;;6.10;3.35;;;;;;;13.80;100.00;100202.63;10466752;28;20061;-81
2022/10/23 21:20:35;;;;;;;7.90;3.20;;;;;;;13.74;100.00;100201.25;10463273;28;20103;-81
2022/10/23 21:25:39;;;;;;;7.25;3.15;;;;;;;13.81;100.00;100191.19;10466200;28;20063;-81
2022/10/23 21:30:41;;;;;;;6.32;3.22;;;;;;;13.84;100.00;100191.00;10464436;28;20052;-87
2022/10/23 21:35:42;;;;;;;3.65;3.08;;;;;;;13.96;100.00;100196.34;10462284;28;20511;-79
2022/10/23 21:40:45;;;;;;;6.18;2.83;;;;;;;14.39;100.00;100190.81;10464500;28;20102;-81
2022/10/23 21:45:47;;;;;;;9.85;3.72;;;;;;;14.25;100.00;100173.38;10464974;28;20049;-80
2022/10/23 21:50:49;;;;;;;5.80;3.50;;;;;;;14.50;100.00;100181.31;10462794;28;20079;-83
2022/10/23 21:55:55;;;;;;;9.75;3.50;;;;;;;14.55;100.00;100187.13;10463081;28;20053;-74
2022/10/23 22:00:56;;;;;;;7.43;3.25;;;;;;;14.69;100.00;100194.03;10461285;28;20507;-78
2022/10/23 22:06:01;;;;;;;7.78;3.05;;;;;;;14.54;100.00;100186.25;10459800;28;20048;-82
2022/10/23 22:11:06;;;;;;;8.00;3.47;;;;;;;14.54;100.00;100185.41;10462279;28;20065;-73
2022/10/23 22:16:08;;;;;;;6.30;3.53;;;;;;;14.43;100.00;100183.53;10462571;28;20056;-83
2022/10/23 22:21:15;;;;;;;7.70;3.53;;;;;;;14.47;100.00;100184.19;10461673;28;20045;-78
2022/10/23 22:26:24;;;;;;;9.07;3.50;;;;;;;14.59;100.00;100185.94;10461310;28;20045;-79
2022/10/23 22:31:31;;;;;;;8.55;3.55;;;;;;;14.67;100.00;100183.63;10461343;28;20061;-76
2022/10/23 22:36:36;;;;;;;5.80;3.25;;;;;;;14.76;100.00;100171.63;10457824;28;20150;-79
2022/10/23 22:41:42;;;;;;;6.25;3.08;;;;;;;14.83;100.00;100169.44;10460026;28;20045;-72
2022/10/23 22:46:45;;;;;;;7.80;3.55;;;;;;;14.74;100.00;100156.91;10459725;28;20052;-79
2022/10/23 22:51:48;;;;;;;11.35;3.40;;;;;;;14.60;100.00;100157.88;10459351;28;20053;-81
2022/10/23 22:56:51;;;;;;;10.95;3.08;;;;;;;14.54;100.00;100153.91;10458911;28;20049;-74
2022/10/23 23:01:53;;;;;;;6.22;3.20;;;;;;;14.65;100.00;100153.19;10458590;28;20190;-86
2022/10/23 23:06:54;;;;;;;;;;;;;;;14.73;100.00;100147.38;10456815;28;20464;-80